Time;durP1;ratioP1;P1;durP2;ratioP2;P2;SDS_P1;SDS_P2;PMS_P1;PMS_P2;Temp;Humidity;BMP_temperature;BMP_pressure;BME280_temperature;BME280_humidity;BME280_pressure;Samples;Min_cycle;Max_cycle;Signal;HPM_P1;HPM_P2
2022/04/27 00:00:24;;;;;;;;;13.75;13.75;;;;;14.28;43.41;101623.91;2094493;28;48491;-59
2022/04/27 00:01:24;;;;;;;;;16.80;16.80;;;;;14.29;43.17;101616.78;2095333;28;47713;-57
2022/04/27 00:02:25;;;;;;;;;15.25;15.25;;;;;14.26;43.32;101623.09;2085618;28;47701;-59
2022/04/27 00:03:25;;;;;;;;;17.50;16.75;;;;;14.24;43.26;101614.22;2090831;28;47706;-59
2022/04/27 00:04:25;;;;;;;;;14.50;14.50;;;;;14.24;43.43;101624.91;2094527;28;47707;-59
2022/04/27 00:05:26;;;;;;;;;25.00;23.75;;;;;14.21;43.32;101613.41;2095147;28;47869;-61
2022/04/27 00:06:27;;;;;;;;;17.20;16.80;;;;;14.18;43.43;101621.50;2094161;28;48078;-58
2022/04/27 00:07:27;;;;;;;;;14.75;14.75;;;;;14.16;43.46;101620.66;2095558;28;47699;-59
2022/04/27 00:08:28;;;;;;;;;12.75;11.00;;;;;14.14;43.27;101623.34;2090680;28;47550;-60
2022/04/27 00:09:29;;;;;;;;;14.75;14.25;;;;;14.14;43.62;101623.34;2096080;28;47716;-60
2022/04/27 00:10:29;;;;;;;;;14.80;14.60;;;;;14.14;43.33;101628.69;2094293;28;47623;-58
2022/04/27 00:11:30;;;;;;;;;13.00;13.00;;;;;14.13;43.44;101624.28;2095826;28;48005;-60
2022/04/27 00:12:30;;;;;;;;;15.00;15.00;;;;;14.13;43.44;101619.81;2092196;28;47576;-58
2022/04/27 00:13:31;;;;;;;;;14.75;13.75;;;;;14.11;43.26;101626.97;2093956;28;47843;-59
2022/04/27 00:14:32;;;;;;;;;13.25;12.50;;;;;14.10;43.71;101630.56;2091523;28;47812;-59
2022/04/27 00:15:32;;;;;;;;;13.40;13.40;;;;;14.09;43.38;101626.09;2087882;28;47982;-59
2022/04/27 00:16:33;;;;;;;;;14.50;14.50;;;;;14.10;43.58;101627.88;2092049;28;47638;-58
2022/04/27 00:17:34;;;;;;;;;13.25;12.75;;;;;14.08;43.58;101624.34;2087704;28;47898;-59
2022/04/27 00:18:35;;;;;;;;;13.40;13.00;;;;;14.08;43.46;101621.69;2092916;28;48171;-56
2022/04/27 00:19:35;;;;;;;;;14.25;14.25;;;;;14.08;43.54;101624.34;2095622;28;47525;-59
2022/04/27 00:20:36;;;;;;;;;11.00;11.00;;;;;14.08;43.78;101621.69;2093007;28;47514;-59
2022/04/27 00:21:36;;;;;;;;;15.25;14.25;;;;;14.07;43.65;101619.91;2095846;28;47524;-59
2022/04/27 00:22:36;;;;;;;;;14.75;14.75;;;;;14.07;43.67;101616.38;2090516;28;47485;-60
2022/04/27 00:23:37;;;;;;;;;14.75;13.75;;;;;14.05;43.59;101624.41;2095531;28;47680;-59
2022/04/27 00:24:39;;;;;;;;;13.25;12.25;;;;;14.03;43.79;101625.38;2092066;28;47604;-59
2022/04/27 00:25:39;;;;;;;;;14.80;13.20;;;;;14.02;43.74;101627.16;2094521;28;47362;-58
2022/04/27 00:26:40;;;;;;;;;15.75;14.25;;;;;14.02;43.75;101626.28;2094319;28;47705;-59
2022/04/27 00:27:40;;;;;;;;;14.00;14.00;;;;;14.02;43.70;101631.63;2094161;28;47441;-59
2022/04/27 00:28:41;;;;;;;;;15.00;14.00;;;;;14.02;43.83;101618.28;2092569;28;46498;-60
2022/04/27 00:29:41;;;;;;;;;14.00;14.00;;;;;14.02;43.92;101623.63;2094491;28;47776;-59
2022/04/27 00:30:42;;;;;;;;;12.75;12.75;;;;;14.04;43.86;101624.47;2090622;28;47853;-60
2022/04/27 00:31:42;;;;;;;;;18.00;14.75;;;;;14.03;43.98;101620.91;2094881;28;48019;-59
2022/04/27 00:32:43;;;;;;;;;13.50;11.75;;;;;14.04;43.78;101625.34;2092372;28;47579;-60
2022/04/27 00:33:45;;;;;;;;;15.50;13.75;;;;;14.06;43.67;101623.50;2094673;28;48074;-60
2022/04/27 00:34:45;;;;;;;;;15.20;13.60;;;;;14.08;43.83;101628.81;2092442;28;47373;-59
2022/04/27 00:35:46;;;;;;;;;12.75;11.75;;;;;14.09;43.80;101630.56;2094215;28;47897;-60
2022/04/27 00:36:46;;;;;;;;;9.75;9.75;;;;;14.10;43.81;101627.88;2091835;28;47517;-58
2022/04/27 00:37:46;;;;;;;;;12.75;10.75;;;;;14.09;43.77;101615.44;2090471;28;47822;-59
2022/04/27 00:38:47;;;;;;;;;13.25;13.25;;;;;14.08;43.57;101631.47;2094102;28;47459;-60
2022/04/27 00:39:47;;;;;;;;;10.75;10.75;;;;;14.08;43.66;101619.00;2093513;28;47334;-60
2022/04/27 00:40:48;;;;;;;;;13.00;12.75;;;;;14.06;43.73;101623.50;2090935;28;47495;-60
2022/04/27 00:42:01;;;;;;;;;9.50;9.50;;;;;14.05;43.52;101620.88;2094103;28;48086;-61
2022/04/27 00:43:02;;;;;;;;;13.20;12.80;;;;;14.04;44.09;101620.00;2082101;28;47586;-59
2022/04/27 00:44:03;;;;;;;;;16.25;15.75;;;;;14.02;43.75;101619.16;2075380;28;47730;-58
2022/04/27 00:45:05;;;;;;;;;10.00;10.00;;;;;14.02;43.72;101620.94;2086058;28;48444;-59
2022/04/27 00:46:06;;;;;;;;;13.60;13.60;;;;;14.01;43.72;101620.06;2091284;28;48169;-57
2022/04/27 00:47:07;;;;;;;;;16.00;14.60;;;;;14.02;43.84;101624.50;2094202;28;47528;-59
2022/04/27 00:48:09;;;;;;;;;17.75;14.75;;;;;14.01;43.80;101617.41;2093322;28;47400;-58
2022/04/27 00:49:10;;;;;;;;;12.00;12.00;;;;;14.02;43.74;101623.63;2089265;28;47685;-58
2022/04/27 00:50:11;;;;;;;;;12.00;12.00;;;;;14.02;43.96;101621.81;2090764;28;47998;-59
2022/04/27 00:51:17;;;;;;;;;13.40;13.40;;;;;14.03;43.85;101622.72;2093835;28;47713;-59
2022/04/27 00:52:19;;;;;;;;;11.00;11.00;;;;;14.01;43.77;101620.06;2096125;28;47803;-57
2022/04/27 00:53:20;;;;;;;;;15.00;14.00;;;;;13.99;43.77;101623.69;2092623;28;47907;-59
2022/04/27 00:54:22;;;;;;;;;15.25;15.25;;;;;13.97;44.06;101621.03;2094033;28;46564;-58
2022/04/27 00:55:23;;;;;;;;;15.20;15.20;;;;;13.96;43.99;101618.41;2093312;28;47829;-59
2022/04/27 00:56:24;;;;;;;;;17.40;16.60;;;;;13.94;43.74;101614.88;2096261;28;47942;-60
2022/04/27 00:57:26;;;;;;;;;14.40;13.60;;;;;13.95;43.84;101613.97;2087064;28;48156;-60
2022/04/27 00:58:27;;;;;;;;;14.80;13.20;;;;;13.93;43.72;101614.00;2090569;28;47636;-58
2022/04/27 00:59:27;;;;;;;;;13.60;13.60;;;;;13.91;43.81;101615.84;2093778;28;47738;-59
2022/04/27 01:00:28;;;;;;;;;14.75;13.00;;;;;13.90;44.01;101618.53;2092988;28;48263;-59
2022/04/27 01:01:29;;;;;;;;;12.75;12.00;;;;;13.88;43.89;101615.91;2095172;28;47575;-59
2022/04/27 01:02:29;;;;;;;;;15.00;12.75;;;;;13.89;44.09;101617.66;2094357;28;47701;-58
2022/04/27 01:03:29;;;;;;;;;13.75;12.00;;;;;13.88;43.99;101621.25;2095286;28;48273;-60
2022/04/27 01:04:33;;;;;;;;;18.25;14.75;;;;;13.87;43.87;101619.50;2090447;28;47697;-58
2022/04/27 01:05:33;;;;;;;;;14.80;11.40;;;;;13.84;44.26;101616.84;2095643;28;48013;-56
2022/04/27 01:06:38;;;;;;;;;14.25;12.50;;;;;13.83;43.97;101610.66;2093448;28;47517;-59
2022/04/27 01:07:40;;;;;;;;;15.80;15.40;;;;;13.82;44.15;101610.69;2095771;28;47992;-59
2022/04/27 01:08:40;;;;;;;;;14.20;12.60;;;;;13.82;44.16;101614.22;2094106;28;47688;-60
2022/04/27 01:09:41;;;;;;;;;13.25;13.25;;;;;13.81;43.94;101611.59;2096910;28;47860;-59
2022/04/27 01:10:43;;;;;;;;;12.75;12.00;;;;;13.79;44.06;101611.63;2093906;28;47699;-59
2022/04/27 01:11:45;;;;;;;;;16.60;15.80;;;;;13.80;43.96;101615.19;2096708;28;47453;-59
2022/04/27 01:12:46;;;;;;;;;15.00;13.20;;;;;13.79;43.96;101605.41;2095158;28;48212;-59
2022/04/27 01:13:46;;;;;;;;;13.00;12.00;;;;;13.78;44.10;101609.00;2096529;28;47489;-59
2022/04/27 01:14:48;;;;;;;;;14.00;12.50;;;;;13.78;44.23;101607.22;2095175;28;47942;-60
2022/04/27 01:15:48;;;;;;;;;14.80;14.80;;;;;13.77;44.09;101607.25;2103332;28;47566;-59
2022/04/27 01:16:53;;;;;;;;;13.50;13.50;;;;;13.77;44.34;101601.91;2102515;28;47738;-60
2022/04/27 01:17:57;;;;;;;;;14.60;14.20;;;;;13.76;44.08;101603.69;2095172;28;46937;-60
2022/04/27 01:18:57;;;;;;;;;15.80;15.80;;;;;13.76;44.17;101606.38;2095162;28;47809;-59
2022/04/27 01:19:58;;;;;;;;;15.50;15.50;;;;;13.76;44.34;101602.81;2092468;28;48046;-59
2022/04/27 01:20:59;;;;;;;;;16.00;15.00;;;;;13.76;44.25;101598.38;2096776;28;48185;-60
2022/04/27 01:22:01;;;;;;;;;14.25;14.00;;;;;13.76;44.47;101595.69;2099320;28;47959;-60
2022/04/27 01:23:02;;;;;;;;;16.00;16.00;;;;;13.76;44.06;101609.03;2099718;28;47385;-60
2022/04/27 01:24:05;;;;;;;;;16.40;15.40;;;;;13.75;44.27;101598.41;2099352;27;48063;-61
2022/04/27 01:25:06;;;;;;;;;10.00;10.00;;;;;13.76;44.26;101605.50;2093384;28;47754;-61
2022/04/27 01:26:07;;;;;;;;;16.25;15.50;;;;;13.72;44.28;101604.69;2091320;28;47770;-59
2022/04/27 01:27:08;;;;;;;;;13.80;13.80;;;;;13.72;44.55;101598.44;2090326;28;48046;-59
2022/04/27 01:28:09;;;;;;;;;14.75;14.25;;;;;13.71;44.33;101604.69;2095411;27;48282;-59
2022/04/27 01:29:10;;;;;;;;;11.20;10.60;;;;;13.70;44.48;101600.25;2096220;28;47649;-59
2022/04/27 01:30:10;;;;;;;;;15.25;14.25;;;;;13.69;44.22;101598.50;2098088;27;48161;-60
2022/04/27 01:31:11;;;;;;;;;17.25;15.50;;;;;13.69;44.38;101601.19;2100974;28;48065;-59
2022/04/27 01:32:12;;;;;;;;;12.40;12.20;;;;;13.68;44.43;101599.41;2097053;27;47652;-60
2022/04/27 01:33:13;;;;;;;;;15.50;14.75;;;;;13.69;44.35;101598.50;2092105;28;48031;-59
2022/04/27 01:34:13;;;;;;;;;13.80;13.80;;;;;13.69;44.36;101603.84;2093618;28;47696;-57
2022/04/27 01:35:14;;;;;;;;;15.25;14.25;;;;;13.69;44.08;101606.50;2096791;28;47991;-60
2022/04/27 01:36:15;;;;;;;;;16.75;16.75;;;;;13.67;44.36;101597.66;2097008;28;47633;-58
2022/04/27 01:38:42;;;;;;;;;16.20;16.00;;;;;13.67;44.48;101592.34;2093343;28;47184;-58
2022/04/27 01:39:43;;;;;;;;;13.40;13.20;;;;;13.68;44.49;101596.75;2102653;28;48020;-58
2022/04/27 01:40:47;;;;;;;;;14.40;14.20;;;;;13.68;44.33;101602.97;2093001;28;47601;-59
2022/04/27 01:41:48;;;;;;;;;12.80;12.60;;;;;13.68;44.36;101596.75;2096240;28;48203;-59
2022/04/27 01:42:49;;;;;;;;;16.50;16.50;;;;;13.67;44.49;101601.22;2096578;28;46499;-56
2022/04/27 01:43:49;;;;;;;;;14.50;14.50;;;;;13.68;44.50;101604.75;2094323;28;47419;-59
2022/04/27 01:44:50;;;;;;;;;18.75;15.75;;;;;13.66;44.37;101602.13;2096142;28;47529;-58
2022/04/27 01:45:51;;;;;;;;;17.50;15.75;;;;;13.67;44.68;101608.34;2095485;28;47752;-60
2022/04/27 01:46:52;;;;;;;;;13.20;13.20;;;;;13.66;44.53;101602.13;2096383;28;47818;-58
2022/04/27 01:47:53;;;;;;;;;14.75;14.50;;;;;13.64;44.60;101597.75;2095258;28;47661;-57
2022/04/27 01:48:55;;;;;;;;;15.80;14.00;;;;;13.65;44.55;101595.03;2091361;28;47994;-59
2022/04/27 01:49:55;;;;;;;;;13.00;13.00;;;;;13.63;44.56;101598.66;2090404;28;48105;-57
2022/04/27 01:50:56;;;;;;;;;16.75;16.75;;;;;13.62;44.35;101592.44;2096573;28;47481;-59
2022/04/27 01:54:34;;;;;;;;;18.40;17.20;;;;;13.57;44.88;101602.31;2096904;28;47459;-58
2022/04/27 01:55:35;;;;;;;;;15.25;15.25;;;;;13.57;44.75;101598.75;2096264;27;47584;-59
2022/04/27 01:56:36;;;;;;;;;14.40;13.60;;;;;13.53;44.76;101593.50;2096528;28;48020;-58
2022/04/27 01:57:36;;;;;;;;;18.50;18.00;;;;;13.54;44.67;101599.69;2088386;28;47691;-53
2022/04/27 01:58:37;;;;;;;;;16.75;15.25;;;;;13.53;44.69;101595.28;2094770;28;47529;-59
2022/04/27 01:59:37;;;;;;;;;18.25;15.25;;;;;13.52;44.81;101605.06;2096282;28;48194;-59
2022/04/27 02:00:38;;;;;;;;;18.50;18.25;;;;;13.52;44.78;101604.19;2092857;28;47204;-59
2022/04/27 02:01:39;;;;;;;;;15.00;15.00;;;;;13.51;44.73;101597.97;2096592;28;48373;-59
2022/04/27 02:02:40;;;;;;;;;15.60;15.60;;;;;13.50;44.69;101601.56;2095937;28;47525;-59
2022/04/27 02:03:40;;;;;;;;;17.25;16.50;;;;;13.50;44.75;101598.00;2096665;28;48183;-57
2022/04/27 02:04:42;;;;;;;;;16.25;15.75;;;;;13.48;44.99;101608.72;2096831;28;47634;-60
2022/04/27 02:05:46;;;;;;;;;18.40;16.20;;;;;13.48;44.85;101606.06;2098356;27;47614;-60
2022/04/27 02:06:47;;;;;;;;;15.00;15.00;;;;;13.47;45.05;101603.41;2100363;28;47685;-59
2022/04/27 02:07:48;;;;;;;;;16.20;16.00;;;;;13.46;44.81;101598.97;2096690;28;47816;-60
2022/04/27 02:08:49;;;;;;;;;18.00;16.75;;;;;13.44;45.06;101596.31;2096701;28;47666;-60
2022/04/27 02:09:49;;;;;;;;;16.00;16.00;;;;;13.43;45.01;101601.69;2096887;28;47690;-60
2022/04/27 02:10:50;;;;;;;;;18.25;18.25;;;;;13.42;45.05;101607.94;2098903;28;48181;-60
2022/04/27 02:11:50;;;;;;;;;18.50;17.50;;;;;13.41;45.03;101608.84;2104465;28;48151;-59
2022/04/27 02:12:51;;;;;;;;;18.00;16.75;;;;;13.40;45.11;101609.75;2099180;27;48007;-59
2022/04/27 02:13:54;;;;;;;;;19.00;18.00;;;;;13.39;45.07;101611.56;2096381;28;47554;-58
2022/04/27 02:14:55;;;;;;;;;20.00;18.20;;;;;13.37;45.24;101610.69;2088696;28;47710;-59
2022/04/27 02:15:56;;;;;;;;;16.25;16.25;;;;;13.37;45.12;101612.50;2095881;28;47901;-61
2022/04/27 02:16:57;;;;;;;;;14.75;14.25;;;;;13.35;45.24;101617.84;2094755;28;47269;-59
2022/04/27 02:17:58;;;;;;;;;19.20;19.20;;;;;13.35;45.18;101619.66;2088805;28;47633;-59
2022/04/27 02:18:59;;;;;;;;;22.00;18.40;;;;;13.34;45.28;101624.09;2095768;28;47706;-59
2022/04/27 02:19:59;;;;;;;;;16.00;15.75;;;;;13.34;45.28;101618.78;2096184;28;47645;-58
2022/04/27 02:21:00;;;;;;;;;14.25;14.25;;;;;13.32;45.33;101615.22;2095834;28;47987;-59
2022/04/27 02:22:00;;;;;;;;;20.50;16.50;;;;;13.31;45.34;101618.81;2096444;28;46528;-58
2022/04/27 02:23:01;;;;;;;;;21.00;20.00;;;;;13.30;45.27;101609.03;2096847;28;47722;-60
2022/04/27 02:24:01;;;;;;;;;15.00;15.00;;;;;13.29;45.39;101615.28;2096645;28;48260;-60
2022/04/27 02:25:03;;;;;;;;;18.75;17.00;;;;;13.30;45.51;101610.84;2113091;27;47475;-60
2022/04/27 02:26:03;;;;;;;;;17.40;16.00;;;;;13.29;45.53;101617.06;2112892;27;48212;-60
2022/04/27 02:27:04;;;;;;;;;16.75;16.00;;;;;13.27;45.54;101611.78;2096309;28;47616;-60
2022/04/27 02:28:06;;;;;;;;;19.50;17.50;;;;;13.26;45.54;101610.03;2096622;28;47815;-60
2022/04/27 02:29:08;;;;;;;;;18.80;18.00;;;;;13.24;45.44;101611.84;2095335;28;48080;-60
2022/04/27 02:30:10;;;;;;;;;17.20;17.20;;;;;13.24;45.49;101601.19;2099226;28;47864;-60
2022/04/27 02:31:11;;;;;;;;;14.00;14.00;;;;;13.22;45.62;101608.34;2105372;27;47956;-60
2022/04/27 02:32:11;;;;;;;;;19.50;17.25;;;;;13.23;45.59;101607.41;2103659;28;47722;-60
2022/04/27 02:33:12;;;;;;;;;21.00;18.50;;;;;13.22;45.66;101611.00;2094803;28;47297;-60
2022/04/27 02:34:12;;;;;;;;;19.00;17.50;;;;;13.19;45.66;101606.56;2095927;28;47498;-60
2022/04/27 02:35:14;;;;;;;;;18.00;16.50;;;;;13.18;45.58;101611.91;2096002;28;47683;-60
2022/04/27 02:36:15;;;;;;;;;18.20;18.20;;;;;13.18;45.83;101606.56;2096017;28;47686;-60
2022/04/27 02:37:15;;;;;;;;;18.00;18.00;;;;;13.17;45.81;101611.03;2096523;28;47880;-59
2022/04/27 02:38:16;;;;;;;;;16.25;15.75;;;;;13.16;45.74;101609.28;2096538;28;47533;-60
2022/04/27 02:39:16;;;;;;;;;19.75;19.75;;;;;13.16;45.79;101606.59;2096607;28;47406;-59
2022/04/27 02:40:17;;;;;;;;;20.00;20.00;;;;;13.14;45.75;101605.75;2094471;28;47694;-59
2022/04/27 02:41:17;;;;;;;;;18.00;18.00;;;;;13.14;45.76;101604.88;2096442;28;46255;-60
2022/04/27 02:42:18;;;;;;;;;19.00;19.00;;;;;13.12;45.83;101604.03;2096313;27;47360;-59
2022/04/27 02:43:18;;;;;;;;;17.75;16.50;;;;;13.12;45.84;101607.56;2095452;28;47239;-59
2022/04/27 02:44:19;;;;;;;;;16.50;16.25;;;;;13.11;45.94;101607.59;2091656;28;47527;-59
2022/04/27 02:45:19;;;;;;;;;20.00;17.50;;;;;13.11;46.00;101599.63;2096698;28;47610;-60
2022/04/27 02:46:20;;;;;;;;;19.75;19.25;;;;;13.11;45.98;101612.94;2094469;28;47410;-58
2022/04/27 02:47:20;;;;;;;;;23.50;18.25;;;;;13.10;46.02;101605.84;2096379;28;48059;-59
2022/04/27 02:48:21;;;;;;;;;20.25;18.75;;;;;13.09;45.95;101610.31;2096458;28;47813;-59
2022/04/27 02:52:00;;;;;;;;;17.40;15.80;;;;;13.08;46.05;101607.63;2096464;28;47466;-60
2022/04/27 02:53:00;;;;;;;;;18.00;18.00;;;;;13.07;45.95;101611.22;2096169;28;47420;-58
2022/04/27 02:54:01;;;;;;;;;17.50;17.50;;;;;13.05;46.17;101608.56;2096433;28;47070;-59
2022/04/27 02:55:02;;;;;;;;;18.25;17.50;;;;;13.03;46.08;101607.72;2096484;28;47842;-59
2022/04/27 02:56:03;;;;;;;;;20.80;18.40;;;;;13.04;46.16;101609.50;2088676;28;47463;-60
2022/04/27 02:57:04;;;;;;;;;23.00;20.00;;;;;13.04;46.43;101603.28;2094758;28;47536;-59
2022/04/27 02:58:05;;;;;;;;;21.25;20.75;;;;;13.05;46.15;101607.69;2091905;28;47563;-60
2022/04/27 02:59:05;;;;;;;;;20.25;19.50;;;;;13.04;46.26;101611.28;2095835;28;46803;-58
2022/04/27 03:00:07;;;;;;;;;18.75;18.75;;;;;13.02;46.08;101608.63;2096118;28;47489;-59
2022/04/27 03:01:07;;;;;;;;;19.40;19.20;;;;;13.00;46.33;101606.91;2095922;27;48094;-57
2022/04/27 03:02:08;;;;;;;;;20.00;17.75;;;;;12.99;46.22;101605.16;2096142;28;47609;-58
2022/04/27 03:03:09;;;;;;;;;21.00;19.25;;;;;12.99;46.22;101613.16;2095166;28;47708;-59
2022/04/27 03:04:10;;;;;;;;;19.75;19.50;;;;;12.98;46.57;101609.59;2088830;28;47767;-58
2022/04/27 03:05:11;;;;;;;;;20.80;18.20;;;;;12.96;46.39;101608.75;2096392;28;47947;-58
2022/04/27 03:06:11;;;;;;;;;23.25;20.50;;;;;12.95;46.51;101602.53;2096150;28;47294;-58
2022/04/27 03:07:12;;;;;;;;;26.50;23.00;;;;;12.94;46.33;101603.44;2096639;28;47528;-59
2022/04/27 03:08:14;;;;;;;;;19.75;19.50;;;;;12.94;46.54;101602.56;2096139;28;47132;-59
2022/04/27 03:09:14;;;;;;;;;20.00;18.20;;;;;12.92;46.64;101602.59;2086671;28;48036;-59
2022/04/27 03:10:15;;;;;;;;;20.50;19.25;;;;;12.91;46.55;101606.16;2086479;28;47253;-59
2022/04/27 03:11:15;;;;;;;;;18.50;15.75;;;;;12.92;46.55;101604.38;2096164;28;47750;-60
2022/04/27 03:12:16;;;;;;;;;20.25;19.00;;;;;12.90;46.67;101593.75;2096181;28;47737;-59
2022/04/27 03:13:17;;;;;;;;;19.60;18.00;;;;;12.91;46.69;101616.81;2096180;28;48365;-58
2022/04/27 03:14:17;;;;;;;;;21.25;19.00;;;;;12.89;46.68;101604.44;2096039;28;47750;-59
2022/04/27 03:15:18;;;;;;;;;22.75;22.50;;;;;12.87;46.79;101603.59;2096267;28;48032;-57
2022/04/27 03:16:18;;;;;;;;;20.75;19.25;;;;;12.86;46.54;101607.16;2095338;28;47292;-58
2022/04/27 03:17:19;;;;;;;;;19.25;19.25;;;;;12.83;46.89;101605.44;2096604;28;47938;-59
2022/04/27 03:18:19;;;;;;;;;18.25;15.00;;;;;12.81;46.81;101607.22;2096139;28;47594;-57
2022/04/27 03:19:20;;;;;;;;;21.50;20.00;;;;;12.80;46.91;101602.78;2096274;28;47920;-58
2022/04/27 03:20:21;;;;;;;;;18.00;18.00;;;;;12.78;46.95;101601.06;2089100;28;47713;-59
2022/04/27 03:21:22;;;;;;;;;22.75;22.00;;;;;12.77;47.04;101605.50;2087958;28;47379;-60
2022/04/27 03:22:22;;;;;;;;;18.25;17.50;;;;;12.76;47.06;101605.53;2086662;28;47071;-59
2022/04/27 03:23:24;;;;;;;;;23.50;21.50;;;;;12.74;47.16;101605.56;2092005;28;47394;-59
2022/04/27 03:24:25;;;;;;;;;25.60;22.80;;;;;12.73;46.95;101605.59;2103584;28;47799;-58
2022/04/27 03:25:25;;;;;;;;;20.25;20.25;;;;;12.72;46.97;101606.50;2104323;27;47812;-59
2022/04/27 03:26:26;;;;;;;;;19.25;18.50;;;;;12.71;46.91;101607.41;2087671;28;47114;-58
2022/04/27 03:27:27;;;;;;;;;26.75;22.50;;;;;12.71;47.26;101602.09;2092272;28;47278;-59
2022/04/27 03:28:28;;;;;;;;;22.80;21.40;;;;;12.70;47.15;101602.97;2088651;28;47571;-59
2022/04/27 03:29:29;;;;;;;;;25.20;25.20;;;;;12.69;47.11;101602.09;2085813;28;47204;-59
2022/04/27 03:30:29;;;;;;;;;26.00;23.00;;;;;12.67;47.22;101601.22;2086867;28;47419;-59
2022/04/27 03:31:31;;;;;;;;;29.25;23.25;;;;;12.67;47.27;101603.91;2090031;28;47774;-59
2022/04/27 03:32:31;;;;;;;;;24.40;23.00;;;;;12.62;47.29;101601.31;2086269;28;47247;-58
2022/04/27 03:33:32;;;;;;;;;24.75;23.25;;;;;12.60;47.29;101608.47;2086401;28;47125;-59
2022/04/27 03:34:33;;;;;;;;;19.50;17.75;;;;;12.58;47.34;101610.28;2095964;28;47192;-58
2022/04/27 03:35:33;;;;;;;;;25.00;24.00;;;;;12.56;47.57;101605.84;2095881;28;47200;-59
2022/04/27 03:36:34;;;;;;;;;20.50;20.50;;;;;12.54;47.45;101602.34;2088200;28;47241;-58
2022/04/27 03:37:35;;;;;;;;;25.75;23.00;;;;;12.51;47.63;101608.59;2090756;28;47610;-58
2022/04/27 03:38:36;;;;;;;;;23.75;23.75;;;;;12.50;47.68;101613.94;2094736;28;47276;-59
2022/04/27 03:39:36;;;;;;;;;20.00;20.00;;;;;12.48;47.66;101606.00;2077971;28;47393;-59
2022/04/27 03:40:37;;;;;;;;;26.50;24.75;;;;;12.47;47.66;101608.69;2085919;28;47462;-58
2022/04/27 03:41:38;;;;;;;;;27.50;25.25;;;;;12.47;47.92;101604.22;2087860;28;47344;-59
2022/04/27 03:42:38;;;;;;;;;25.00;24.25;;;;;12.45;47.94;101599.81;2089258;28;46995;-58
2022/04/27 03:43:39;;;;;;;;;22.50;22.50;;;;;12.44;47.84;101603.38;2087748;28;46942;-59
2022/04/27 03:44:39;;;;;;;;;28.00;25.75;;;;;12.43;47.86;101599.84;2085582;28;47316;-60
2022/04/27 03:45:41;;;;;;;;;22.00;22.00;;;;;12.44;47.88;101601.59;2086355;28;47338;-59
2022/04/27 03:46:41;;;;;;;;;27.00;23.80;;;;;12.42;47.95;101599.88;2093877;28;47603;-59
2022/04/27 03:47:43;;;;;;;;;30.75;29.25;;;;;12.43;47.97;101599.84;2095678;28;47617;-59
2022/04/27 03:48:43;;;;;;;;;22.60;22.60;;;;;12.42;48.05;101599.88;2096161;28;47903;-59
2022/04/27 03:49:44;;;;;;;;;26.25;24.00;;;;;12.42;47.97;101595.41;2095928;28;47057;-59
2022/04/27 03:50:45;;;;;;;;;28.50;24.25;;;;;12.41;48.23;101595.44;2095991;28;47111;-59
2022/04/27 03:51:45;;;;;;;;;26.75;24.75;;;;;12.40;48.20;101594.56;2094694;28;48191;-58
2022/04/27 03:52:47;;;;;;;;;28.00;26.50;;;;;12.38;48.11;101599.91;2094719;28;47210;-59
2022/04/27 03:53:47;;;;;;;;;24.00;23.20;;;;;12.35;48.29;101597.31;2095947;28;47257;-58
2022/04/27 03:54:48;;;;;;;;;24.75;24.75;;;;;12.33;48.38;101603.56;2095901;28;47208;-59
2022/04/27 03:55:48;;;;;;;;;27.00;24.00;;;;;12.32;48.16;101601.78;2095675;28;47145;-59
2022/04/27 03:56:49;;;;;;;;;23.25;21.00;;;;;12.32;48.42;101596.44;2095845;28;47472;-58
2022/04/27 03:57:50;;;;;;;;;28.25;24.25;;;;;12.32;48.18;101604.44;2096028;28;47127;-58
2022/04/27 03:58:50;;;;;;;;;27.25;25.50;;;;;12.30;48.36;101603.59;2102805;28;47237;-59
2022/04/27 03:59:51;;;;;;;;;24.00;23.25;;;;;12.28;48.33;101606.28;2102955;28;47771;-60
2022/04/27 04:00:52;;;;;;;;;24.50;24.00;;;;;12.28;48.35;101595.63;2095815;28;47459;-58
2022/04/27 04:01:53;;;;;;;;;24.60;23.40;;;;;12.29;48.68;101599.16;2095840;28;47366;-59
2022/04/27 04:02:54;;;;;;;;;26.25;25.50;;;;;12.30;48.63;101609.78;2094668;28;47728;-60
2022/04/27 04:03:57;;;;;;;;;24.25;23.75;;;;;12.31;48.64;101605.34;2094761;28;47379;-59
2022/04/27 04:04:57;;;;;;;;;27.40;26.00;;;;;12.30;48.53;101603.59;2112116;27;48032;-59
2022/04/27 04:05:58;;;;;;;;;24.25;23.25;;;;;12.31;48.49;101603.56;2111326;27;47051;-59
2022/04/27 04:06:59;;;;;;;;;26.50;25.75;;;;;12.33;48.58;101606.22;2102725;28;47101;-59
2022/04/27 04:07:59;;;;;;;;;30.00;26.25;;;;;12.32;48.69;101605.34;2103041;28;47007;-59
2022/04/27 04:09:00;;;;;;;;;26.25;25.00;;;;;12.30;48.59;101604.47;2112321;27;45733;-58
2022/04/27 04:10:02;;;;;;;;;25.75;24.50;;;;;12.30;48.72;101606.25;2112009;27;46977;-59
2022/04/27 04:11:03;;;;;;;;;27.20;24.20;;;;;12.29;48.72;101602.69;2111143;27;46143;-59
2022/04/27 04:12:04;;;;;;;;;28.75;28.75;;;;;12.30;48.88;101603.59;2102983;28;47382;-59
2022/04/27 04:13:05;;;;;;;;;26.80;26.80;;;;;12.30;48.69;101604.47;2094210;28;47497;-58
2022/04/27 04:14:06;;;;;;;;;28.25;24.25;;;;;12.31;48.85;101608.00;2093470;28;46975;-60
2022/04/27 04:15:07;;;;;;;;;29.50;29.00;;;;;12.30;48.85;101609.78;2095325;28;47266;-59
2022/04/27 04:16:08;;;;;;;;;25.00;23.20;;;;;12.30;48.95;101609.78;2095830;28;47336;-60
2022/04/27 04:17:08;;;;;;;;;32.75;29.25;;;;;12.30;48.75;101616.88;2095755;28;47227;-59
2022/04/27 04:18:09;;;;;;;;;23.75;23.75;;;;;12.30;48.92;101614.22;2095733;28;47205;-60
2022/04/27 04:19:10;;;;;;;;;27.75;25.50;;;;;12.29;48.70;101616.00;2095954;27;46029;-59
2022/04/27 04:20:17;;;;;;;;;31.25;30.00;;;;;12.30;48.61;101616.88;2095563;28;47536;-59
2022/04/27 04:21:17;;;;;;;;;33.40;28.60;;;;;12.27;48.87;101615.16;2095824;28;47348;-59
2022/04/27 04:22:18;;;;;;;;;25.00;25.00;;;;;12.24;48.91;101611.66;2095779;28;47301;-59
2022/04/27 04:23:19;;;;;;;;;30.00;27.80;;;;;12.22;48.85;101614.34;2095466;28;47897;-59
2022/04/27 04:24:20;;;;;;;;;29.50;28.50;;;;;12.21;48.98;101617.94;2093801;28;47440;-59
2022/04/27 04:29:19;;;;;;;;;30.40;23.60;;;;;12.16;48.56;101617.09;2092115;28;47068;-60
2022/04/27 04:30:20;;;;;;;;;22.75;20.25;;;;;12.15;49.25;101618.00;2091025;28;47184;-58
2022/04/27 04:31:21;;;;;;;;;24.75;24.75;;;;;12.15;49.24;101622.44;2093929;28;47449;-58
2022/04/27 04:32:21;;;;;;;;;33.25;31.25;;;;;12.14;49.27;101621.56;2093887;28;46952;-58
2022/04/27 04:33:22;;;;;;;;;26.00;25.25;;;;;12.13;49.32;101619.78;2093038;28;45340;-59
2022/04/27 04:34:23;;;;;;;;;27.75;27.00;;;;;12.12;49.08;101625.16;2094471;28;47781;-57
2022/04/27 04:35:24;;;;;;;;;30.25;29.25;;;;;12.10;49.45;101627.81;2101491;28;47576;-59
2022/04/27 04:36:25;;;;;;;;;29.20;26.20;;;;;12.09;49.16;101626.06;2102743;28;47138;-57
2022/04/27 04:37:25;;;;;;;;;30.50;27.25;;;;;12.11;49.35;101626.94;2094487;28;47262;-59
2022/04/27 04:38:26;;;;;;;;;32.25;31.50;;;;;12.10;49.29;101626.94;2094881;28;47161;-58
2022/04/27 04:39:27;;;;;;;;;30.50;28.50;;;;;12.09;49.35;101634.06;2095512;28;47069;-58
2022/04/27 04:40:28;;;;;;;;;32.50;30.75;;;;;12.08;49.52;101629.63;2095591;28;47093;-57
2022/04/27 04:41:28;;;;;;;;;33.50;30.75;;;;;12.10;49.55;101632.28;2101558;28;47737;-59
2022/04/27 04:42:29;;;;;;;;;34.00;31.75;;;;;12.07;49.38;101634.06;2101637;27;47392;-60
2022/04/27 04:43:32;;;;;;;;;27.50;27.25;;;;;12.08;49.71;101633.19;2101602;27;46963;-59
2022/04/27 04:44:32;;;;;;;;;28.60;28.20;;;;;12.07;49.40;101630.53;2106547;27;47446;-60
2022/04/27 04:45:33;;;;;;;;;32.50;31.00;;;;;12.06;49.47;101634.94;2105917;27;46758;-59
2022/04/27 04:46:34;;;;;;;;;31.75;30.50;;;;;12.05;49.33;101635.84;2099007;28;47509;-58
2022/04/27 04:47:34;;;;;;;;;31.25;25.75;;;;;12.07;49.39;101633.19;2087553;28;47516;-59